createdAt,value
2023-03-05T00:02:01.614Z,58.54
2023-03-05T00:04:29.911Z,58.45
2023-03-05T00:06:58.160Z,58.46
2023-03-05T00:09:27.260Z,58.36
2023-03-05T00:11:58.297Z,58.54
2023-03-05T00:14:26.676Z,58.67
2023-03-05T00:16:55.187Z,58.74
2023-03-05T00:19:24.775Z,58.65
2023-03-05T00:21:53.548Z,58.44
2023-03-05T00:24:28.925Z,58.23
2023-03-05T00:26:57.875Z,58.20
2023-03-05T00:29:30.103Z,58.19
2023-03-05T00:31:59.886Z,58.02
2023-03-05T00:34:29.875Z,57.74
2023-03-05T00:36:59.485Z,57.52
2023-03-05T00:39:28.171Z,57.56
2023-03-05T00:41:56.953Z,57.56
2023-03-05T00:44:25.653Z,57.62
2023-03-05T00:46:54.094Z,57.71
2023-03-05T00:49:23.011Z,57.67
2023-03-05T00:51:52.419Z,57.60
2023-03-05T00:54:21.213Z,57.61
2023-03-05T00:56:50.605Z,57.62
2023-03-05T00:59:19.187Z,57.73
2023-03-05T01:01:48.000Z,57.87
2023-03-05T01:04:18.207Z,58.39
2023-03-05T01:06:47.691Z,58.76
2023-03-05T01:09:17.804Z,59.13
2023-03-05T01:11:46.187Z,59.48
2023-03-05T01:14:15.578Z,59.41
2023-03-05T01:16:44.882Z,59.52
2023-03-05T01:19:14.518Z,59.84
2023-03-05T01:21:43.167Z,59.80
2023-03-05T01:24:26.417Z,59.87
2023-03-05T01:26:55.178Z,59.85
2023-03-05T01:29:23.965Z,59.73
2023-03-05T01:31:52.815Z,59.60
2023-03-05T01:34:21.742Z,59.73
2023-03-05T01:36:56.102Z,60.02
2023-03-05T01:39:24.346Z,60.35
2023-03-05T01:41:52.818Z,60.40
2023-03-05T01:44:28.679Z,60.38
2023-03-05T01:46:57.253Z,60.31
2023-03-05T01:49:36.290Z,60.43
2023-03-05T01:52:14.171Z,60.09
2023-03-05T01:55:20.552Z,59.37
2023-03-05T01:58:02.453Z,58.62
2023-03-05T02:00:41.248Z,58.21
2023-03-05T02:03:10.394Z,57.87
2023-03-05T02:05:39.470Z,57.71
2023-03-05T02:08:11.002Z,57.78
2023-03-05T02:10:43.900Z,57.57
2023-03-05T02:13:22.822Z,57.48
2023-03-05T02:15:52.204Z,57.29
2023-03-05T02:18:22.751Z,57.11
2023-03-05T02:20:56.886Z,57.03
2023-03-05T02:23:30.260Z,56.92
2023-03-05T02:25:58.640Z,56.90
2023-03-05T02:28:33.275Z,57.43
2023-03-05T02:31:03.391Z,58.08
2023-03-05T02:33:31.658Z,58.14
2023-03-05T02:36:03.017Z,58.09
2023-03-05T02:38:32.113Z,57.88
2023-03-05T02:41:00.587Z,57.67
2023-03-05T02:43:29.167Z,57.55
2023-03-05T02:45:58.153Z,57.37
2023-03-05T02:48:26.539Z,57.36
2023-03-05T02:50:55.533Z,57.35
2023-03-05T02:53:26.574Z,57.22
2023-03-05T02:55:54.854Z,57.40
2023-03-05T02:58:23.224Z,57.50
2023-03-05T03:00:51.977Z,57.87
2023-03-05T03:03:20.824Z,58.17
2023-03-05T03:05:49.687Z,58.00
2023-03-05T03:08:18.274Z,57.45
2023-03-05T03:10:56.638Z,56.67
2023-03-05T03:13:26.298Z,56.86
2023-03-05T03:16:05.720Z,57.04
2023-03-05T03:18:34.008Z,56.76
2023-03-05T03:21:03.099Z,56.62
2023-03-05T03:23:34.287Z,56.58
2023-03-05T03:26:02.526Z,56.71
2023-03-05T03:28:31.104Z,56.72
2023-03-05T03:30:59.711Z,56.73
2023-03-05T03:33:28.196Z,56.38
2023-03-05T03:35:56.594Z,56.19
2023-03-05T03:38:25.134Z,56.07
2023-03-05T03:40:55.967Z,55.77
2023-03-05T03:43:24.960Z,55.48
2023-03-05T03:45:53.472Z,55.46
2023-03-05T03:48:22.434Z,55.39
2023-03-05T03:50:50.685Z,55.55
2023-03-05T03:53:18.881Z,55.64
2023-03-05T03:55:47.464Z,55.89
2023-03-05T03:58:15.741Z,55.18
2023-03-05T04:00:44.022Z,55.42
2023-03-05T04:03:13.829Z,55.62
2023-03-05T04:05:43.846Z,56.19
2023-03-05T04:08:12.940Z,56.63
2023-03-05T04:10:41.737Z,57.19
2023-03-05T04:13:10.821Z,57.08
2023-03-05T04:15:44.553Z,56.59
2023-03-05T04:18:12.900Z,56.23
2023-03-05T04:20:41.493Z,56.84
2023-03-05T04:23:10.580Z,56.74
2023-03-05T04:25:39.063Z,56.74
2023-03-05T04:28:07.642Z,56.58
2023-03-05T04:34:17.308Z,56.59
2023-03-05T04:36:45.783Z,55.97
2023-03-05T04:39:14.981Z,56.19
2023-03-05T04:41:43.765Z,56.35
2023-03-05T04:44:14.091Z,56.43
2023-03-05T04:46:42.514Z,56.29
2023-03-05T04:49:11.077Z,56.19
2023-03-05T04:51:40.964Z,55.49
2023-03-05T04:54:09.575Z,55.37
2023-03-05T05:00:07.131Z,54.90
2023-03-05T05:02:35.576Z,54.33
2023-03-05T05:05:04.193Z,54.16
2023-03-05T05:07:33.085Z,53.90
2023-03-05T05:10:05.148Z,53.89
2023-03-05T05:12:33.832Z,53.81
2023-03-05T05:15:02.724Z,53.85
2023-03-05T05:17:33.170Z,53.77
2023-03-05T05:20:06.755Z,53.88
2023-03-05T05:22:35.950Z,53.56
2023-03-05T05:25:05.348Z,53.22
2023-03-05T05:27:34.650Z,52.87
2023-03-05T05:30:04.350Z,52.84
2023-03-05T05:32:32.673Z,52.93
2023-03-05T05:35:01.163Z,52.74
2023-03-05T05:37:30.116Z,52.32
2023-03-05T05:39:59.512Z,52.20
2023-03-05T05:42:29.732Z,52.17
2023-03-05T05:44:58.728Z,52.03
2023-03-05T05:47:28.137Z,52.10
2023-03-05T05:49:57.236Z,52.41
2023-03-05T05:52:25.928Z,52.27
2023-03-05T05:54:54.203Z,52.33
2023-03-05T05:57:22.567Z,52.07
2023-03-05T05:59:51.457Z,51.96
2023-03-05T06:02:19.906Z,52.17
2023-03-05T06:04:48.723Z,52.05
2023-03-05T06:07:17.022Z,52.00
2023-03-05T06:09:45.274Z,51.88
2023-03-05T06:12:17.331Z,51.91
2023-03-05T06:15:06.408Z,52.00
2023-03-05T06:17:34.987Z,52.09
2023-03-05T06:20:06.980Z,51.60
2023-03-05T06:22:37.884Z,51.65
2023-03-05T06:25:09.739Z,51.69
2023-03-05T06:27:38.737Z,51.88
2023-03-05T06:30:08.345Z,51.86
2023-03-05T06:32:39.138Z,51.77
2023-03-05T06:35:08.203Z,51.16
2023-03-05T06:37:37.675Z,51.07
2023-03-05T06:40:07.886Z,50.80
2023-03-05T06:42:36.478Z,51.07
2023-03-05T06:45:05.755Z,51.15
2023-03-05T06:47:35.277Z,50.99
2023-03-05T06:50:05.954Z,50.82
2023-03-05T06:52:34.603Z,50.74
2023-03-05T06:55:05.437Z,50.37
2023-03-05T06:57:34.849Z,50.54
2023-03-05T07:00:09.564Z,50.77
2023-03-05T07:02:38.627Z,50.62
2023-03-05T07:05:07.743Z,50.46
2023-03-05T07:07:41.360Z,50.27
2023-03-05T07:10:11.579Z,50.58
2023-03-05T07:12:44.269Z,50.11
2023-03-05T07:15:12.945Z,50.14
2023-03-05T07:17:41.527Z,50.14
2023-03-05T07:20:10.739Z,50.53
2023-03-05T07:22:39.203Z,50.60
2023-03-05T07:25:08.193Z,50.53
2023-03-05T07:27:38.210Z,50.48
2023-03-05T07:30:07.611Z,50.53
2023-03-05T07:32:36.377Z,50.69
2023-03-05T07:35:05.492Z,51.13
2023-03-05T07:37:36.653Z,51.21
2023-03-05T07:40:06.247Z,51.31
2023-03-05T07:42:39.606Z,51.29
2023-03-05T07:45:18.364Z,51.15
2023-03-05T07:47:46.623Z,51.14
2023-03-05T07:50:14.912Z,51.49
2023-03-05T07:52:43.699Z,51.83
2023-03-05T07:55:12.494Z,51.99
2023-03-05T07:57:41.075Z,52.03
2023-03-05T08:00:10.066Z,52.01
2023-03-05T08:02:41.509Z,51.74
2023-03-05T08:05:10.555Z,51.63
2023-03-05T08:07:54.453Z,51.36
2023-03-05T08:10:23.236Z,51.41
2023-03-05T08:12:51.720Z,51.67
2023-03-05T08:15:20.414Z,51.52
2023-03-05T08:17:49.119Z,51.41
2023-03-05T08:20:19.412Z,51.08
2023-03-05T08:22:48.097Z,51.25
2023-03-05T08:25:18.627Z,50.88
2023-03-05T08:27:49.973Z,50.49
2023-03-05T08:30:22.340Z,50.17
2023-03-05T08:32:51.759Z,50.38
2023-03-05T08:35:20.759Z,50.28
2023-03-05T08:37:54.551Z,50.15
2023-03-05T08:40:24.074Z,50.23
2023-03-05T08:42:52.532Z,50.02
2023-03-05T08:45:24.090Z,49.66
2023-03-05T08:47:52.671Z,49.66
2023-03-05T08:50:26.575Z,49.57
2023-03-05T08:52:57.220Z,49.43
2023-03-05T08:55:25.800Z,48.56
2023-03-05T08:57:54.274Z,48.32
2023-03-05T09:00:23.304Z,48.50
2023-03-05T09:02:52.821Z,47.39
2023-03-05T09:05:21.449Z,46.81
2023-03-05T09:07:50.647Z,46.40
2023-03-05T09:10:21.585Z,46.27
2023-03-05T09:12:50.066Z,45.99
2023-03-05T09:15:19.998Z,45.46
2023-03-05T09:17:51.637Z,45.50
2023-03-05T09:20:20.225Z,45.37
2023-03-05T09:22:51.682Z,45.28
2023-03-05T09:25:20.351Z,45.00
2023-03-05T09:27:48.833Z,44.93
2023-03-05T09:30:17.925Z,44.61
2023-03-05T09:32:46.678Z,44.75
2023-03-05T09:35:16.328Z,44.83
2023-03-05T09:37:45.213Z,44.63
2023-03-05T09:40:16.071Z,44.43
2023-03-05T09:43:12.589Z,44.60
2023-03-05T09:46:06.604Z,44.61
2023-03-05T09:48:56.654Z,44.08
2023-03-05T09:51:26.665Z,43.75
2023-03-05T09:54:03.860Z,43.37
2023-03-05T09:56:37.905Z,43.17
2023-03-05T09:59:14.760Z,42.91
2023-03-05T10:01:43.117Z,42.56
2023-03-05T10:04:18.505Z,42.56
2023-03-05T10:06:46.837Z,42.54
2023-03-05T10:09:22.134Z,42.87
2023-03-05T10:12:01.016Z,43.14
2023-03-05T10:14:39.215Z,43.02
2023-03-05T10:17:31.390Z,42.98
2023-03-05T10:20:08.121Z,43.27
2023-03-05T10:23:09.778Z,43.57
2023-03-05T10:26:07.341Z,43.58
2023-03-05T10:28:42.398Z,43.41
2023-03-05T10:31:25.263Z,43.09
2023-03-05T10:34:01.157Z,42.76
2023-03-05T10:36:51.953Z,42.06
2023-03-05T10:39:41.951Z,41.17
2023-03-05T10:42:13.489Z,40.93
2023-03-05T10:44:44.121Z,40.99
2023-03-05T10:47:25.092Z,41.00
2023-03-05T10:49:55.017Z,41.00
2023-03-05T10:52:35.987Z,40.74
2023-03-05T10:55:20.455Z,40.67
2023-03-05T10:57:49.836Z,39.81
2023-03-05T11:00:19.935Z,39.80
2023-03-05T11:02:58.093Z,39.42
2023-03-05T11:05:44.407Z,39.28
2023-03-05T11:08:36.112Z,39.33
2023-03-05T11:11:13.061Z,39.72
2023-03-05T11:13:59.871Z,39.60
2023-03-05T11:16:30.223Z,39.07
2023-03-05T11:19:18.854Z,38.66
2023-03-05T11:22:04.226Z,37.92
2023-03-05T11:24:34.041Z,37.85
2023-03-05T11:27:02.311Z,38.00
2023-03-05T11:33:15.775Z,37.42
2023-03-05T11:35:44.908Z,37.20
2023-03-05T11:38:21.335Z,37.64
2023-03-05T11:40:52.092Z,37.89
2023-03-05T11:43:22.600Z,37.71
2023-03-05T11:46:02.907Z,37.72
2023-03-05T11:48:51.195Z,37.41
2023-03-05T11:51:39.310Z,37.77
2023-03-05T11:54:09.486Z,38.14
2023-03-05T11:56:39.986Z,38.15
2023-03-05T11:59:28.851Z,37.88
2023-03-05T12:02:00.587Z,37.46
2023-03-05T12:04:29.805Z,38.79
2023-03-05T12:06:59.139Z,39.93
2023-03-05T12:09:41.170Z,39.97
2023-03-05T12:12:21.664Z,39.57
2023-03-05T12:15:02.035Z,39.06
2023-03-05T12:18:19.968Z,39.11
2023-03-05T12:21:04.321Z,39.01
2023-03-05T12:23:59.128Z,39.06
2023-03-05T12:27:04.532Z,39.79
2023-03-05T12:29:33.175Z,39.36
2023-03-05T12:32:31.642Z,39.42
2023-03-05T12:35:19.609Z,40.19
2023-03-05T12:37:48.252Z,40.22
2023-03-05T12:40:21.451Z,39.98
2023-03-05T12:42:52.414Z,40.34
2023-03-05T12:45:34.790Z,40.32
2023-03-05T12:48:03.884Z,40.15
2023-03-05T12:50:52.914Z,40.03
2023-03-05T12:53:22.451Z,39.88
2023-03-05T12:55:59.708Z,39.68
2023-03-05T12:58:37.337Z,39.59
2023-03-05T13:04:31.020Z,39.79
2023-03-05T13:07:04.645Z,39.64
2023-03-05T13:09:36.620Z,39.66
2023-03-05T13:12:06.758Z,39.77
2023-03-05T13:14:43.084Z,39.21
2023-03-05T13:17:30.900Z,38.91
2023-03-05T13:20:01.638Z,39.32
2023-03-05T13:22:30.211Z,38.53
2023-03-05T13:25:06.077Z,38.83
2023-03-05T13:27:36.189Z,39.28
2023-03-05T13:30:05.081Z,39.17
2023-03-05T13:32:35.130Z,38.63
2023-03-05T13:35:03.570Z,38.44
2023-03-05T13:37:37.067Z,38.50
2023-03-05T13:40:20.014Z,38.70
2023-03-05T13:42:48.673Z,38.99
2023-03-05T13:45:31.335Z,39.32
2023-03-05T13:48:03.239Z,39.39
2023-03-05T13:50:39.814Z,39.55
2023-03-05T13:53:19.672Z,39.52
2023-03-05T13:55:53.568Z,39.56
2023-03-05T13:58:41.631Z,39.34
2023-03-05T14:01:28.634Z,39.71
2023-03-05T14:04:07.138Z,40.01
2023-03-05T14:06:40.942Z,39.74
2023-03-05T14:09:19.970Z,39.45
2023-03-05T14:11:57.466Z,39.83
2023-03-05T14:14:26.153Z,39.95
2023-03-05T14:17:17.158Z,40.06
2023-03-05T14:19:45.560Z,40.10
2023-03-05T14:22:33.784Z,40.10
2023-03-05T14:25:03.860Z,40.15
2023-03-05T14:27:35.160Z,40.48
2023-03-05T14:30:04.664Z,40.90
2023-03-05T14:32:36.766Z,41.22
2023-03-05T14:35:06.152Z,41.12
2023-03-05T14:37:42.280Z,41.17
2023-03-05T14:40:13.725Z,41.09
2023-03-05T14:42:59.455Z,41.04
2023-03-05T14:45:33.411Z,40.93
2023-03-05T14:48:03.030Z,41.01
2023-03-05T14:50:42.633Z,40.72
2023-03-05T14:53:48.492Z,40.44
2023-03-05T14:56:24.020Z,40.83
2023-03-05T14:58:53.200Z,41.40
2023-03-05T15:01:21.473Z,41.96
2023-03-05T15:03:50.648Z,42.00
2023-03-05T15:06:26.628Z,42.06
2023-03-05T15:08:55.181Z,41.95
2023-03-05T15:11:23.771Z,42.14
2023-03-05T15:13:53.578Z,42.82
2023-03-05T15:16:21.796Z,42.96
2023-03-05T15:18:50.333Z,43.23
2023-03-05T15:21:19.425Z,43.28
2023-03-05T15:23:48.115Z,43.46
2023-03-05T15:26:16.799Z,43.70
2023-03-05T15:28:45.379Z,43.87
2023-03-05T15:31:13.877Z,43.69
2023-03-05T15:33:42.961Z,43.59
2023-03-05T15:36:12.356Z,43.83
2023-03-05T15:38:41.810Z,44.08
2023-03-05T15:41:10.050Z,43.91
2023-03-05T15:43:39.231Z,43.71
2023-03-05T15:46:07.745Z,43.87
2023-03-05T15:48:39.265Z,44.07
2023-03-05T15:51:07.775Z,44.23
2023-03-05T15:53:36.031Z,44.35
2023-03-05T15:56:04.809Z,44.49
2023-03-05T15:58:33.093Z,44.38
2023-03-05T16:01:01.574Z,44.41
2023-03-05T16:03:30.183Z,44.60
2023-03-05T16:05:58.541Z,44.79
2023-03-05T16:08:28.238Z,44.84
2023-03-05T16:10:56.826Z,44.88
2023-03-05T16:13:28.249Z,44.75
2023-03-05T16:15:57.485Z,45.00
2023-03-05T16:18:25.888Z,45.17
2023-03-05T16:20:55.561Z,45.25
2023-03-05T16:23:23.979Z,45.17
2023-03-05T16:25:55.493Z,44.97
2023-03-05T16:28:23.767Z,44.87
2023-03-05T16:30:56.149Z,44.93
2023-03-05T16:33:25.132Z,45.09
2023-03-05T16:36:20.946Z,45.26
2023-03-05T16:38:57.701Z,45.45
2023-03-05T16:41:26.927Z,45.46
2023-03-05T16:43:56.648Z,45.57
2023-03-05T16:46:26.189Z,45.69
2023-03-05T16:48:55.755Z,45.64
2023-03-05T16:51:30.988Z,45.82
2023-03-05T16:53:59.568Z,46.00
2023-03-05T16:56:27.959Z,46.12
2023-03-05T16:58:56.691Z,46.33
2023-03-05T17:01:25.509Z,46.54
2023-03-05T17:03:57.467Z,46.86
2023-03-05T17:06:28.017Z,47.06
2023-03-05T17:08:58.845Z,47.26
2023-03-05T17:11:27.741Z,47.35
2023-03-05T17:13:58.161Z,47.33
2023-03-05T17:16:27.910Z,47.40
2023-03-05T17:19:01.166Z,47.51
2023-03-05T17:21:29.958Z,47.46
2023-03-05T17:23:58.553Z,47.37
2023-03-05T17:26:28.135Z,47.29
2023-03-05T17:28:56.532Z,46.79
2023-03-05T17:31:25.043Z,46.69
2023-03-05T17:33:56.661Z,45.39
2023-03-05T17:36:25.546Z,42.77
2023-03-05T17:38:53.930Z,40.94
2023-03-05T17:41:22.512Z,39.64
2023-03-05T17:43:57.069Z,38.19
2023-03-05T17:46:26.130Z,37.81
2023-03-05T17:48:54.401Z,37.46
2023-03-05T17:51:22.677Z,37.28
2023-03-05T17:53:51.155Z,37.10
2023-03-05T17:56:23.113Z,37.05
2023-03-05T17:58:52.423Z,36.96
2023-03-05T18:01:31.446Z,37.04
2023-03-05T18:03:59.932Z,36.76
2023-03-05T18:06:29.964Z,36.84
2023-03-05T18:08:59.146Z,36.94
2023-03-05T18:11:29.160Z,37.05
2023-03-05T18:13:59.277Z,36.86
2023-03-05T18:16:27.800Z,36.61
2023-03-05T18:18:56.851Z,36.71
2023-03-05T18:21:28.321Z,36.48
2023-03-05T18:23:56.882Z,36.37
2023-03-05T18:26:25.571Z,36.16
2023-03-05T18:28:53.926Z,36.32
2023-03-05T18:31:22.321Z,36.26
2023-03-05T18:33:51.321Z,36.37
2023-03-05T18:36:20.412Z,36.66
2023-03-05T18:38:48.684Z,36.95
2023-03-05T18:41:21.836Z,36.99
2023-03-05T18:43:50.969Z,37.05
2023-03-05T18:46:20.003Z,36.99
2023-03-05T18:48:49.569Z,37.13
2023-03-05T18:51:21.937Z,36.70
2023-03-05T18:53:52.165Z,36.85
2023-03-05T18:56:22.085Z,36.79
2023-03-05T18:58:51.210Z,36.88
2023-03-05T19:01:20.110Z,37.12
2023-03-05T19:03:49.363Z,37.45
2023-03-05T19:06:18.051Z,37.50
2023-03-05T19:09:08.524Z,37.38
2023-03-05T19:11:47.592Z,37.08
2023-03-05T19:14:16.178Z,37.35
2023-03-05T19:16:45.249Z,37.38
2023-03-05T19:19:20.468Z,37.67
2023-03-05T19:21:55.426Z,37.66
2023-03-05T19:24:25.153Z,37.50
2023-03-05T19:26:56.176Z,37.31
2023-03-05T19:29:25.377Z,36.95
2023-03-05T19:31:53.954Z,37.05
2023-03-05T19:34:22.332Z,37.68
2023-03-05T19:36:51.014Z,37.84
2023-03-05T19:39:24.921Z,38.12
2023-03-05T19:41:53.408Z,38.13
2023-03-05T19:44:21.787Z,37.84
2023-03-05T19:46:50.462Z,37.87
2023-03-05T19:49:19.875Z,38.11
2023-03-05T19:51:49.160Z,38.38
2023-03-05T19:54:19.240Z,38.31
2023-03-05T19:56:48.069Z,38.31
2023-03-05T19:59:18.194Z,38.55
2023-03-05T20:01:46.901Z,38.45
2023-03-05T20:04:20.783Z,38.44
2023-03-05T20:06:49.490Z,38.49
2023-03-05T20:09:20.719Z,38.88
2023-03-05T20:11:49.199Z,39.59
2023-03-05T20:14:17.780Z,39.42
2023-03-05T20:16:46.666Z,39.25
2023-03-05T20:19:17.102Z,39.21
2023-03-05T20:21:45.477Z,39.36
2023-03-05T20:24:16.015Z,39.23
2023-03-05T20:26:45.638Z,39.21
2023-03-05T20:29:17.342Z,39.34
2023-03-05T20:31:46.530Z,39.16
2023-03-05T20:34:16.888Z,38.99
2023-03-05T20:36:46.905Z,38.86
2023-03-05T20:39:15.804Z,38.98
2023-03-05T20:41:47.243Z,39.09
2023-03-05T20:44:17.158Z,39.59
2023-03-05T20:47:22.232Z,39.97
2023-03-05T20:50:07.827Z,40.24
2023-03-05T20:52:37.386Z,39.92
2023-03-05T20:55:06.918Z,39.44
2023-03-05T20:57:35.203Z,39.62
2023-03-05T21:00:04.368Z,40.10
2023-03-05T21:02:33.268Z,40.51
2023-03-05T21:05:01.941Z,40.19
2023-03-05T21:07:31.136Z,39.89
2023-03-05T21:09:59.522Z,40.01
2023-03-05T21:12:29.432Z,39.85
2023-03-05T21:14:59.550Z,39.81
2023-03-05T21:17:30.898Z,39.94
2023-03-05T21:19:59.283Z,40.35
2023-03-05T21:22:27.776Z,40.71
2023-03-05T21:25:12.738Z,40.84
2023-03-05T21:27:42.480Z,41.34
2023-03-05T21:30:18.810Z,42.22
2023-03-05T21:32:48.501Z,42.81
2023-03-05T21:35:18.863Z,43.12
2023-03-05T21:37:47.718Z,43.76
2023-03-05T21:40:17.820Z,43.93
2023-03-05T21:42:46.832Z,44.11
2023-03-05T21:45:17.994Z,44.38
2023-03-05T21:47:46.555Z,44.81
2023-03-05T21:50:15.348Z,44.85
2023-03-05T21:52:50.068Z,44.65
2023-03-05T21:55:20.399Z,44.52
2023-03-05T21:57:48.665Z,44.37
2023-03-05T22:00:22.880Z,44.19
2023-03-05T22:02:51.788Z,44.18
2023-03-05T22:05:20.349Z,44.21
2023-03-05T22:07:49.545Z,44.52
2023-03-05T22:10:22.705Z,44.67
2023-03-05T22:13:10.998Z,44.71
2023-03-05T22:15:45.807Z,44.91
2023-03-05T22:18:29.149Z,44.86
2023-03-05T22:20:57.919Z,44.82
2023-03-05T22:23:29.372Z,45.01
2023-03-05T22:25:58.674Z,44.95
2023-03-05T22:28:27.476Z,44.93
2023-03-05T22:30:57.292Z,44.95
2023-03-05T22:33:26.215Z,44.85
2023-03-05T22:35:55.092Z,44.88
2023-03-05T22:38:24.353Z,45.09
2023-03-05T22:40:53.303Z,45.26
2023-03-05T22:43:22.959Z,45.17
2023-03-05T22:45:51.356Z,44.81
2023-03-05T22:48:19.809Z,44.57
2023-03-05T22:50:54.872Z,44.54
2023-03-05T22:53:23.118Z,44.51
2023-03-05T22:55:51.395Z,43.90
2023-03-05T22:58:21.966Z,43.83
2023-03-05T23:00:50.300Z,44.04
2023-03-05T23:03:18.580Z,43.91
2023-03-05T23:05:47.676Z,43.63
2023-03-05T23:08:16.677Z,43.22
2023-03-05T23:10:46.075Z,42.87
2023-03-05T23:13:14.462Z,42.66
2023-03-05T23:15:42.985Z,42.67
2023-03-05T23:18:15.313Z,42.72
2023-03-05T23:20:44.006Z,42.74
2023-03-05T23:23:12.776Z,42.61
2023-03-05T23:25:42.102Z,42.49
2023-03-05T23:28:10.370Z,42.60
2023-03-05T23:30:39.765Z,42.82
2023-03-05T23:33:14.746Z,43.09
2023-03-05T23:35:49.873Z,43.05
2023-03-05T23:38:20.250Z,42.99
2023-03-05T23:40:50.282Z,43.21
2023-03-05T23:43:19.162Z,43.22
2023-03-05T23:45:48.697Z,43.33
2023-03-05T23:48:17.186Z,43.67
2023-03-05T23:50:47.773Z,44.03
2023-03-05T23:53:20.770Z,43.87
2023-03-05T23:55:49.472Z,43.81
2023-03-05T23:58:23.976Z,43.70
